Airways and Terminal Forecast

Significant Meteorological Information

WSPH31 RPLL 191759 
RPHI SIGMET I13 VALID 191759/192159 RPLL-
RPHI MANILA FIR EMBD TS OBS WI N1744 E11808 - N1643 E11936 - N1354 E11734 - N1727 E11619 - N1744 E11808 TOP FL500 MOV WNW 10KT INTSF=


WSPH31 RPLL 191748 
RPHI SIGMET H12 VALID 191748/192148 RPLL-
RPHI MANILA FIR EMBD TS OBS WI N1022 E12641 - N0842 E12820 - N0755 E12803 - N0732 E12544 - N0843 E12506 - N1022 E12641 TOP FL520 MOV W 5KT INTSF=


WSPH31 RPLL 191727 
RPHI SIGMET G11 VALID 191727/192127 RPLL-
RPHI MANILA FIR EMBD TS OBS WI N1032 E12456 - N0949 E12532 - N0743 E12321 - N0603 E12419 - N0457 E12351 - N0705 E11926 - N1032 E12456 TOP FL520 MOV W 5KT INTSF=

Terminal Aerodrome Forecast

TAF RPLL

191700Z 1918/2024 VRB02KT 9999 FEW023 BKN100 TX30/2006Z TN25/1921Z TEMPO 1918/1924 -SHRA SCT023 OVC090 TEMPO 2003/2009 VRB06KT -SHRA FEW022CB SCT023 OVC090=

TAF RPVM

191700Z 1918/2024 20005KT 9999 FEW020 BKN100 TEMPO 1918/1924 VRB03KT 9000 -TSRA SCT018CB OVC090 TEMPO 2000/2006 21006KT -SHRA FEW018CB BKN100=

TAF RPLC

191700Z 1918/2024 17006KT 8000 SCT020 BKN300 TX32/2006Z TN25/1922Z TEMPO 1918/1924 32006KT SCT020 BKN100=

TAF RPLB

191700Z 1918/2018 05004KT 9999 FEW020 SCT080 TX30/2006Z TN25/1921Z TEMPO 1918/1924 SCT020 BKN080=

TAF RPLI

191700Z 1918/2018 12004KT 9999 FEW018 BKN290 BECMG 2001/2003 28007KT TEMPO 2006/2012 VRB05KT -TSRA FEW017CB SCT018 BKN100=

TAF RPVP

191700Z 1918/2018 27006KT 9999 FEW019 SCT080 BKN240 TEMPO 1918/1924 -SHRA SCT019 BKN080 TEMPO 2003/2009 18008KT FEW017CB SCT019 BKN080=

TAF RPVD

191700Z 1918/2018 29005KT 9999 SCT015 SCT070 BKN220 TEMPO 1918/1924 7000 -SHRA FEW014CB SCT015 OVC070=

TAF RPMR

191700Z 1918/2018 32004KT 9999 FEW018 BKN080 TEMPO 1918/1924 VRB02KT 5000 SHRA SCT018 OVC080=

TAF RPMD

191700Z 1918/2018 33004KT 9999 FEW016 SCT090 BKN260 TEMPO 1918/1924 VRB03KT 5000 -RA SCT015 OVC080 TEMPO 2004/2010 16008KT 7000 -SHRA FEW015CB SCT016 OVC080=

TAF RPMZ

191700Z 1918/2018 08006KT 9999 FEW017 SCT090 BKN300 TEMPO 1918/1924 VRB02KT 6000 -SHRA SCT016CB BKN090=

TAF RPVK

191700Z 1918/2018 19005KT 9999 FEW016 BKN070 TEMPO 1918/1924 VRB03KT 5000 SHRA FEW015CB SCT016 OVC070=

 

RPLL FORECAST TAKE-OFF CONDITION

TIME

(UTC)

WIND

(dddffKT)

TEMP

(°C)

QNH

(hPa)

TIME

(UTC)

WIND

(dddffKT)

TEMP

(°C)

QNH

(hPa)

1800

00000KT

26.0

1010.0

2100

00000KT

25.5

1010.0

1900

VRB02KT

26.0

1010.0

2200

VRB02KT

26.0

1010.5

2000

VRB02KT

25.5

1010.0

2300

VRB02KT

27.0

1011.0

 

ISSUED AT NAIA AMSS-WD/PAGASA-DOST FOR 1700UTC 19 SEPTEMBER 2021

PREPARED BY:                MPT

CHECKED BY:                  AYN